Time;durP1;ratioP1;P1;durP2;ratioP2;P2;SDS_P1;SDS_P2;PMS_P1;PMS_P2;Temp;Humidity;BMP_temperature;BMP_pressure;BME280_temperature;BME280_humidity;BME280_pressure;Samples;Min_cycle;Max_cycle;Signal;HPM_P1;HPM_P2
2021/10/07 00:01:08;;;;;;;0.25;0.20;;;23.10;45.40;27.40;94589.00;;;;10391793;28;74680;-64
2021/10/07 00:06:09;;;;;;;0.20;0.20;;;23.10;46.10;27.40;94596.00;;;;10393144;28;75420;-64
2021/10/07 00:11:12;;;;;;;0.50;0.20;;;23.10;45.30;27.40;94600.00;;;;10391428;28;75840;-65
2021/10/07 00:16:13;;;;;;;0.50;0.30;;;23.10;45.40;27.40;94596.00;;;;10392378;28;45603;-64
2021/10/07 00:21:18;;;;;;;1.42;0.32;;;23.10;45.40;27.40;94591.00;;;;10392625;28;45838;-64
2021/10/07 00:26:19;;;;;;;0.40;0.30;;;23.10;45.40;27.40;94584.00;;;;10392069;28;46190;-64
2021/10/07 00:31:22;;;;;;;0.40;0.10;;;23.10;45.30;27.40;94599.00;;;;10407109;28;75048;-65
2021/10/07 00:36:38;;;;;;;1.60;0.20;;;23.10;45.30;27.30;94598.00;;;;10392497;28;45428;-64
2021/10/07 00:41:42;;;;;;;1.90;0.17;;;23.10;45.40;27.30;94590.00;;;;10377194;28;48113;-65
2021/10/07 00:46:59;;;;;;;0.50;0.20;;;23.00;45.30;27.40;94598.00;;;;10391633;28;45661;-64
2021/10/07 00:52:00;;;;;;;;;;;23.00;45.30;27.80;94596.00;;;;10408954;28;45430;-65
2021/10/07 00:57:04;;;;;;;0.40;0.20;;;23.10;45.30;27.40;94605.00;;;;10391531;28;46196;-64
2021/10/07 01:02:07;;;;;;;0.30;0.20;;;23.10;45.30;27.30;94603.00;;;;10369136;28;46898;-65
2021/10/07 01:07:08;;;;;;;0.45;0.20;;;23.00;45.20;27.30;94612.00;;;;10372803;28;47063;-65
2021/10/07 01:12:09;;;;;;;0.35;0.20;;;23.00;46.00;27.30;94594.00;;;;10390905;28;45580;-64
2021/10/07 01:17:13;;;;;;;0.93;0.17;;;23.00;45.30;27.30;94584.00;;;;10390970;28;45307;-65
2021/10/07 01:22:15;;;;;;;0.35;0.20;;;23.00;45.30;27.30;94598.00;;;;10390135;28;45471;-65
2021/10/07 01:27:18;;;;;;;1.50;0.30;;;23.00;45.30;27.30;94593.00;;;;10390545;28;46390;-65
2021/10/07 01:32:19;;;;;;;0.15;0.10;;;23.00;45.30;27.30;94598.00;;;;10407467;28;53539;-64
2021/10/07 01:37:20;;;;;;;0.25;0.10;;;23.00;45.30;27.30;94596.00;;;;10390750;28;45306;-65
2021/10/07 01:42:21;;;;;;;0.40;0.30;;;23.00;45.20;27.30;94591.00;;;;10390959;28;46036;-64
2021/10/07 01:47:21;;;;;;;0.40;0.17;;;23.00;45.20;27.30;94582.00;;;;10381128;28;47163;-65
2021/10/07 01:52:22;;;;;;;0.10;0.10;;;23.00;45.20;27.30;94585.00;;;;10396093;28;74008;-65
2021/10/07 01:57:22;;;;;;;1.40;0.30;;;23.00;45.20;27.30;94584.00;;;;10379254;28;74617;-64
2021/10/07 02:02:23;;;;;;;0.50;0.20;;;23.00;45.20;27.30;94583.00;;;;10412010;28;74483;-65
2021/10/07 02:07:24;;;;;;;1.17;0.10;;;22.90;45.10;27.30;94579.00;;;;10395157;28;73995;-65
2021/10/07 02:12:25;;;;;;;0.20;0.13;;;23.00;45.20;27.20;94581.00;;;;10378825;28;47175;-65
2021/10/07 02:17:26;;;;;;;1.17;0.30;;;22.90;45.20;27.20;94576.00;;;;10378432;28;46972;-65
2021/10/07 02:22:27;;;;;;;0.20;0.20;;;23.00;45.20;27.20;94588.00;;;;10395235;28;45337;-65
2021/10/07 02:27:28;;;;;;;0.30;0.22;;;22.90;45.20;27.20;94579.00;;;;10378533;28;61383;-66
2021/10/07 02:32:28;;;;;;;0.93;0.20;;;22.90;45.10;27.20;94576.00;;;;10377705;28;75303;-66
2021/10/07 02:37:29;;;;;;;0.50;0.20;;;22.90;45.10;27.20;94585.00;;;;10377906;28;75481;-63
2021/10/07 02:42:29;;;;;;;0.32;0.17;;;22.90;45.10;27.20;94583.00;;;;10394386;28;75573;-65
2021/10/07 02:47:30;;;;;;;0.17;0.10;;;22.90;45.10;27.20;94571.00;;;;10395706;28;74333;-65
2021/10/07 02:52:31;;;;;;;0.20;0.10;;;22.90;45.10;27.20;94573.00;;;;10395295;28;56658;-65
2021/10/07 02:57:32;;;;;;;0.25;0.10;;;22.90;45.10;27.20;94591.00;;;;10394392;28;45409;-65
2021/10/07 03:02:32;;;;;;;0.63;0.35;;;22.90;45.10;27.20;94575.00;;;;10395954;28;45496;-65
2021/10/07 03:07:34;;;;;;;0.52;0.30;;;22.90;45.10;27.20;94573.00;;;;10393738;28;60134;-66
2021/10/07 03:12:34;;;;;;;0.50;0.20;;;22.90;45.10;27.20;94586.00;;;;10394252;28;45368;-65
2021/10/07 03:17:36;;;;;;;0.75;0.25;;;22.90;45.10;27.20;94579.00;;;;10394439;28;46514;-66
2021/10/07 03:22:37;;;;;;;1.10;0.40;;;22.90;45.10;27.20;94583.00;;;;10393493;28;46275;-65
2021/10/07 03:27:38;;;;;;;0.32;0.30;;;22.90;45.10;27.20;94589.00;;;;10376746;28;48014;-65
2021/10/07 03:32:39;;;;;;;1.30;0.30;;;22.90;45.10;27.20;94581.00;;;;10376082;28;63499;-65
2021/10/07 03:37:39;;;;;;;0.20;0.20;;;22.90;45.10;27.20;94591.00;;;;10374685;28;74399;-66
2021/10/07 03:42:40;;;;;;;0.55;0.30;;;22.90;45.10;27.20;94585.00;;;;10393172;28;45350;-64
2021/10/07 03:47:41;;;;;;;0.65;0.32;;;22.90;45.10;27.20;94590.00;;;;10375784;28;59254;-65
2021/10/07 03:52:42;;;;;;;0.55;0.40;;;22.90;45.10;27.20;94602.00;;;;10391187;28;75738;-65
2021/10/07 03:57:43;;;;;;;0.85;0.20;;;22.90;45.10;27.10;94608.00;;;;10374613;28;75723;-63
2021/10/07 04:02:44;;;;;;;0.35;0.20;;;22.90;45.10;27.10;94610.00;;;;10391126;28;74275;-65
2021/10/07 04:07:44;;;;;;;0.30;0.20;;;22.90;45.10;27.10;94614.00;;;;10407026;28;60818;-66
2021/10/07 04:12:45;;;;;;;1.10;0.30;;;22.80;45.10;27.10;94622.00;;;;10390655;28;66832;-65
2021/10/07 04:17:46;;;;;;;0.35;0.20;;;22.80;45.20;27.20;94625.00;;;;10390469;28;75636;-64
2021/10/07 04:22:46;;;;;;;0.93;0.50;;;22.80;45.20;27.20;94627.00;;;;10374322;28;47816;-63
2021/10/07 04:27:47;;;;;;;0.55;0.20;;;22.80;45.10;27.10;94615.00;;;;10390422;28;75188;-64
2021/10/07 04:32:48;;;;;;;0.45;0.30;;;22.80;45.10;27.10;94626.00;;;;10391635;28;73701;-65
2021/10/07 04:37:49;;;;;;;0.28;0.20;;;22.90;45.20;27.10;94635.00;;;;10390541;28;75664;-65
2021/10/07 04:42:49;;;;;;;0.45;0.20;;;22.90;45.20;27.10;94625.00;;;;10374213;28;54883;-64
2021/10/07 04:47:50;;;;;;;0.50;0.32;;;22.90;45.30;27.10;94637.00;;;;10373314;28;74022;-65
2021/10/07 04:52:51;;;;;;;0.50;0.35;;;22.90;45.30;27.10;94641.00;;;;10390849;28;74517;-65
2021/10/07 04:57:51;;;;;;;0.75;0.30;;;22.90;45.20;27.10;94642.00;;;;10389513;28;74082;-65
2021/10/07 05:02:52;;;;;;;0.50;0.20;;;22.90;45.30;27.10;94642.00;;;;10389517;28;73405;-64
2021/10/07 05:07:53;;;;;;;0.75;0.40;;;22.80;45.20;27.10;94642.00;;;;10389520;28;73995;-65
2021/10/07 05:12:53;;;;;;;0.47;0.28;;;22.80;45.20;27.10;94641.00;;;;10390363;28;45586;-63
2021/10/07 05:17:54;;;;;;;0.88;0.28;;;22.80;45.20;27.10;94649.00;;;;10390661;28;75183;-64
2021/10/07 05:22:55;;;;;;;0.82;0.22;;;22.90;45.20;27.10;94642.00;;;;10397030;28;55854;-64
2021/10/07 05:27:56;;;;;;;0.57;0.25;;;22.80;45.20;27.10;94633.00;;;;10380396;28;48872;-64
2021/10/07 05:32:56;;;;;;;0.50;0.22;;;22.80;45.20;27.10;94637.00;;;;10396841;28;45658;-64
2021/10/07 05:37:57;;;;;;;1.95;0.40;;;22.80;45.20;27.10;94651.00;;;;10380304;28;51404;-63
2021/10/07 05:42:58;;;;;;;0.57;0.30;;;22.90;45.20;27.10;94643.00;;;;10379930;28;50465;-64
2021/10/07 05:47:58;;;;;;;0.77;0.30;;;22.90;45.20;27.10;94643.00;;;;10379312;28;74188;-64
2021/10/07 05:52:59;;;;;;;0.75;0.30;;;22.80;45.20;27.10;94661.00;;;;10395229;28;75533;-64
2021/10/07 05:58:00;;;;;;;0.60;0.35;;;22.80;45.10;27.10;94658.00;;;;10379045;28;73775;-64
2021/10/07 06:03:00;;;;;;;1.25;0.30;;;22.80;45.10;27.10;94656.00;;;;10379354;28;75126;-64
2021/10/07 06:08:01;;;;;;;0.73;0.40;;;22.80;45.90;27.10;94666.00;;;;10395425;28;72344;-64
2021/10/07 06:13:02;;;;;;;0.60;0.40;;;22.90;45.30;27.10;94650.00;;;;10394186;28;45659;-64
2021/10/07 06:18:03;;;;;;;0.90;0.35;;;22.90;45.20;27.10;94660.00;;;;10396048;28;46275;-64
2021/10/07 06:23:04;;;;;;;0.70;0.40;;;22.90;45.20;27.10;94661.00;;;;10379762;28;48014;-64
2021/10/07 06:28:07;;;;;;;1.02;0.30;;;22.90;45.10;27.10;94671.00;;;;10377154;28;75751;-64
2021/10/07 06:33:07;;;;;;;1.10;0.30;;;22.90;45.20;27.10;94667.00;;;;10378468;28;47313;-64
2021/10/07 06:38:08;;;;;;;0.38;0.38;;;22.90;45.20;27.10;94668.00;;;;10378086;28;47197;-62
2021/10/07 06:43:09;;;;;;;0.98;0.30;;;22.80;45.20;27.10;94651.00;;;;10350058;28;55628;-66
2021/10/07 06:48:13;;;;;;;0.80;0.30;;;22.90;45.50;27.20;94676.00;;;;10375865;28;72702;-66
2021/10/07 06:53:14;;;;;;;1.63;0.40;;;22.90;46.20;27.20;94674.00;;;;10395020;28;46917;-66
2021/10/07 06:58:16;;;;;;;0.82;0.40;;;23.00;46.40;27.20;94674.00;;;;10377526;28;48372;-65
2021/10/07 07:03:16;;;;;;;1.80;0.30;;;23.00;46.40;27.20;94681.00;;;;10393892;28;46329;-63
2021/10/07 07:08:17;;;;;;;1.45;0.50;;;23.00;46.00;27.30;94690.00;;;;10410743;28;47108;-67
2021/10/07 07:13:18;;;;;;;1.13;0.30;;;23.00;46.10;27.30;94682.00;;;;10391183;28;45994;-63
2021/10/07 07:18:18;;;;;;;1.90;0.60;;;23.10;46.10;27.30;94695.00;;;;10394200;28;75264;-63
2021/10/07 07:23:19;;;;;;;2.58;0.50;;;23.10;46.30;27.30;94696.00;;;;10392996;28;75665;-62
2021/10/07 07:28:20;;;;;;;3.50;0.50;;;23.10;46.00;27.40;94691.00;;;;10386622;28;75588;-66
2021/10/07 07:33:24;;;;;;;1.08;0.40;;;23.10;46.50;27.40;94697.00;;;;10400996;28;52773;-70
2021/10/07 07:38:25;;;;;;;2.08;0.40;;;23.10;46.50;27.40;94713.00;;;;10371594;28;47509;-72
2021/10/07 07:43:26;;;;;;;1.60;0.45;;;23.20;46.30;27.40;94704.00;;;;10376296;28;75825;-67
2021/10/07 07:48:26;;;;;;;1.33;0.40;;;23.20;46.90;27.50;94712.00;;;;10376613;28;75164;-69
2021/10/07 07:53:27;;;;;;;2.90;0.60;;;23.30;46.50;27.60;94708.00;;;;10368960;28;74211;-69
2021/10/07 07:58:28;;;;;;;3.08;0.50;;;23.30;46.20;27.60;94711.00;;;;10385143;28;60038;-72
2021/10/07 08:03:29;;;;;;;2.33;0.50;;;23.30;45.90;27.60;94689.00;;;;10389943;28;49060;-64
2021/10/07 08:08:30;;;;;;;2.22;0.40;;;23.30;46.30;27.60;94699.00;;;;10392601;28;46130;-62
2021/10/07 08:13:31;;;;;;;1.88;0.30;;;23.30;46.10;27.60;94701.00;;;;10334473;28;75579;-63
2021/10/07 08:18:31;;;;;;;0.98;0.40;;;23.20;45.80;27.50;94705.00;;;;10350431;28;75148;-63
2021/10/07 08:23:35;;;;;;;1.58;0.50;;;23.30;45.70;27.50;94711.00;;;;10350633;28;74494;-61
2021/10/07 08:28:36;;;;;;;1.45;0.47;;;23.30;45.60;27.50;94707.00;;;;10350537;28;45621;-63
2021/10/07 08:33:37;;;;;;;0.90;0.40;;;23.20;45.50;27.50;94716.00;;;;10350319;28;71467;-61
2021/10/07 08:38:37;;;;;;;1.38;0.40;;;23.20;45.50;27.50;94705.00;;;;10351485;28;46084;-61
2021/10/07 08:43:40;;;;;;;1.02;0.28;;;23.20;45.50;27.40;94723.00;;;;10333186;28;74278;-61
2021/10/07 08:48:41;;;;;;;1.42;0.40;;;23.20;45.50;27.40;94727.00;;;;10349267;28;51385;-61
2021/10/07 08:53:41;;;;;;;1.30;0.30;;;23.20;45.50;27.40;94732.00;;;;10349191;28;47205;-61
2021/10/07 08:58:42;;;;;;;0.85;0.32;;;23.10;45.50;27.40;94730.00;;;;10349730;28;46525;-62
2021/10/07 09:03:43;;;;;;;0.85;0.30;;;23.10;45.50;27.40;94720.00;;;;10348724;28;63511;-61
2021/10/07 09:08:49;;;;;;;2.13;0.47;;;23.10;45.50;27.40;94734.00;;;;10348080;28;73998;-61
2021/10/07 09:13:49;;;;;;;2.00;0.43;;;23.10;45.50;27.40;94721.00;;;;10385975;22;50917;-66
2021/10/07 09:18:50;;;;;;;1.77;0.30;;;23.10;45.50;27.40;94721.00;;;;10332448;28;74887;-66
2021/10/07 09:23:50;;;;;;;2.78;0.45;;;23.10;45.50;27.40;94725.00;;;;10332770;28;75136;-71
2021/10/07 09:29:00;;;;;;;0.73;0.20;;;23.10;45.50;27.40;94719.00;;;;10307621;28;74821;-68
2021/10/07 09:34:04;;;;;;;0.65;0.43;;;23.10;45.70;27.40;94707.00;;;;10366106;28;45453;-68
2021/10/07 09:39:07;;;;;;;0.82;0.40;;;23.20;46.20;27.40;94706.00;;;;10349489;28;45402;-67
2021/10/07 09:44:08;;;;;;;0.70;0.40;;;23.20;46.40;27.50;94709.00;;;;10366031;28;45485;-68
2021/10/07 09:49:12;;;;;;;1.00;0.50;;;23.20;46.60;27.50;94717.00;;;;10364937;28;75691;-69
2021/10/07 09:54:18;;;;;;;1.85;0.30;;;23.30;46.70;27.60;94721.00;;;;10358868;28;47148;-68
2021/10/07 09:59:22;;;;;;;1.08;0.32;;;23.30;46.80;27.60;94709.00;;;;10349527;28;46661;-73
2021/10/07 10:04:25;;;;;;;1.38;0.30;;;23.30;47.00;27.60;94706.00;;;;10332785;28;45768;-70
2021/10/07 10:09:27;;;;;;;1.00;0.30;;;23.30;46.80;27.60;94711.00;;;;10353834;28;45533;-72
2021/10/07 10:14:27;;;;;;;1.88;0.50;;;23.30;46.40;27.60;94713.00;;;;10352201;28;46397;-71
2021/10/07 10:19:31;;;;;;;2.50;0.45;;;23.30;46.10;27.70;94711.00;;;;10338538;28;75159;-65
2021/10/07 10:24:32;;;;;;;1.88;0.40;;;23.30;46.50;27.70;94684.00;;;;10356617;28;45380;-65
2021/10/07 10:29:33;;;;;;;3.38;0.43;;;23.40;46.20;27.70;94701.00;;;;10337081;28;75582;-65
2021/10/07 10:34:47;;;;;;;1.52;0.30;;;23.40;46.10;27.80;94709.00;;;;10337304;28;47294;-65
2021/10/07 10:39:47;;;;;;;2.15;0.30;;;23.40;46.00;27.80;94703.00;;;;10338203;28;47089;-64
2021/10/07 10:44:53;;;;;;;1.05;0.40;;;23.40;45.90;27.80;94720.00;;;;10354731;28;48407;-73
2021/10/07 10:50:04;;;;;;;0.70;0.40;;;23.50;46.20;27.90;94709.00;;;;10338407;28;48438;-72
2021/10/07 10:55:19;;;;;;;0.95;0.28;;;23.50;46.30;28.00;94717.00;;;;10371004;28;47666;-69
2021/10/07 11:00:36;;;;;;;0.57;0.40;;;23.60;46.30;28.10;94706.00;;;;10355458;28;45347;-70
2021/10/07 11:06:03;;;;;;;1.00;0.52;;;23.70;46.10;28.10;94705.00;;;;10348480;28;46265;-69
2021/10/07 11:11:05;;;;;;;1.70;0.30;;;23.70;46.00;28.10;94707.00;;;;10350503;28;47218;-72
2021/10/07 11:16:09;;;;;;;0.75;0.40;;;23.70;46.00;28.10;94710.00;;;;10353035;28;46304;-70
2021/10/07 11:21:16;;;;;;;0.80;0.40;;;23.70;45.80;28.10;94713.00;;;;10337314;28;47484;-65
2021/10/07 11:26:20;;;;;;;0.57;0.45;;;23.70;45.80;28.10;94723.00;;;;10337343;28;47408;-69
2021/10/07 11:31:27;;;;;;;0.35;0.28;;;23.70;45.20;28.10;94729.00;;;;10336612;28;47167;-64
2021/10/07 11:36:30;;;;;;;1.27;0.47;;;23.70;45.20;28.10;94711.00;;;;10351549;28;45441;-64
2021/10/07 11:41:35;;;;;;;0.70;0.40;;;23.70;45.00;28.10;94707.00;;;;10336066;28;47683;-64
2021/10/07 11:46:37;;;;;;;0.43;0.30;;;23.70;45.00;28.10;94704.00;;;;10334675;28;47120;-64
2021/10/07 11:51:39;;;;;;;0.47;0.30;;;23.70;44.90;28.10;94716.00;;;;10351533;28;45547;-64
2021/10/07 11:56:39;;;;;;;0.82;0.30;;;23.70;44.80;28.10;94706.00;;;;10352502;28;45511;-69
2021/10/07 12:01:40;;;;;;;1.05;0.43;;;23.70;45.10;28.20;94689.00;;;;10351553;28;74339;-66
2021/10/07 12:06:41;;;;;;;0.73;0.38;;;23.80;45.10;28.20;94695.00;;;;10351753;28;47250;-66
2021/10/07 12:11:42;;;;;;;1.10;0.20;;;23.70;43.50;28.20;94685.00;;;;10334269;28;75823;-68
2021/10/07 12:16:43;;;;;;;1.80;0.50;;;23.70;44.30;28.10;94679.00;;;;10351695;28;46994;-71
2021/10/07 12:21:55;;;;;;;0.60;0.30;;;23.70;43.00;28.20;94661.00;;;;10351376;28;45480;-66
2021/10/07 12:26:59;;;;;;;1.15;0.30;;;23.70;43.50;28.10;94660.00;;;;10350534;28;46692;-66
2021/10/07 12:32:11;;;;;;;2.83;0.55;;;23.70;43.60;28.10;94668.00;;;;10351282;28;45501;-68
2021/10/07 12:37:15;;;;;;;0.68;0.30;;;23.70;44.10;28.10;94664.00;;;;10351405;28;48366;-74
2021/10/07 12:42:20;;;;;;;0.95;0.32;;;23.70;44.20;28.20;94670.00;;;;10352528;28;45572;-72
2021/10/07 12:47:27;;;;;;;1.08;0.30;;;23.80;44.40;28.20;94665.00;;;;10350364;28;46332;-69
2021/10/07 12:52:41;;;;;;;0.90;0.50;;;23.80;44.80;28.30;94656.00;;;;10349700;28;47352;-66
2021/10/07 12:57:51;;;;;;;2.30;0.40;;;23.80;44.60;28.30;94673.00;;;;10333970;28;47151;-65
2021/10/07 13:02:56;;;;;;;1.10;0.45;;;23.80;44.40;28.30;94673.00;;;;10333603;28;47137;-69
2021/10/07 13:08:03;;;;;;;1.98;0.30;;;23.80;44.60;28.30;94666.00;;;;10344957;28;45551;-66
2021/10/07 13:13:04;;;;;;;0.30;0.28;;;23.90;45.10;28.30;94663.00;;;;10348168;28;56008;-66
2021/10/07 13:18:05;;;;;;;0.47;0.22;;;23.90;44.80;28.40;94658.00;;;;10313475;28;46146;-66
2021/10/07 13:23:06;;;;;;;0.55;0.20;;;23.90;44.70;28.30;94652.00;;;;10328443;28;46244;-66
2021/10/07 13:28:07;;;;;;;0.80;0.22;;;23.90;44.60;28.40;94661.00;;;;10348606;28;46175;-66
2021/10/07 13:33:08;;;;;;;0.65;0.30;;;23.90;44.60;28.40;94671.00;;;;10347510;28;75417;-66
2021/10/07 13:38:09;;;;;;;0.60;0.30;;;23.90;44.50;28.40;94665.00;;;;10350095;28;45568;-66
2021/10/07 13:43:10;;;;;;;0.68;0.30;;;23.90;44.50;28.40;94666.00;;;;10355364;28;47162;-66
2021/10/07 13:48:10;;;;;;;0.82;0.30;;;23.90;44.50;28.30;94659.00;;;;10355557;28;47970;-65
2021/10/07 13:53:12;;;;;;;0.68;0.30;;;23.90;44.50;28.30;94676.00;;;;10357427;28;45282;-66
2021/10/07 13:58:13;;;;;;;0.47;0.28;;;23.90;44.50;28.30;94675.00;;;;10371808;28;48542;-66
2021/10/07 14:03:13;;;;;;;0.80;0.35;;;23.90;44.50;28.30;94672.00;;;;10370893;28;45612;-66
2021/10/07 14:08:14;;;;;;;0.95;0.30;;;23.90;44.50;28.30;94675.00;;;;10356048;28;69542;-70
2021/10/07 14:13:15;;;;;;;1.10;0.30;;;23.90;44.70;28.30;94663.00;;;;10372193;28;45351;-67
2021/10/07 14:18:17;;;;;;;0.45;0.17;;;23.90;44.40;28.30;94677.00;;;;10366284;28;47875;-68
2021/10/07 14:23:20;;;;;;;0.28;0.15;;;23.90;44.60;28.40;94677.00;;;;10354988;28;46460;-69
2021/10/07 14:28:21;;;;;;;0.75;0.20;;;24.00;44.70;28.40;94676.00;;;;10354675;28;45938;-68
2021/10/07 14:33:22;;;;;;;1.00;0.30;;;24.00;44.70;28.50;94670.00;;;;10354662;28;47142;-67
2021/10/07 14:38:23;;;;;;;0.52;0.17;;;24.10;44.70;28.50;94671.00;;;;10353022;28;74554;-69
2021/10/07 14:43:23;;;;;;;0.85;0.35;;;24.10;44.60;28.50;94678.00;;;;10353428;28;47314;-63
2021/10/07 14:48:24;;;;;;;2.17;0.30;;;24.10;44.60;28.50;94670.00;;;;10336289;28;75459;-64
2021/10/07 14:53:25;;;;;;;0.68;0.25;;;24.10;44.30;28.60;94691.00;;;;10352672;28;75386;-64
2021/10/07 14:58:26;;;;;;;1.15;0.30;;;24.10;44.10;28.60;94692.00;;;;10344800;28;75533;-66
2021/10/07 15:03:26;;;;;;;1.48;0.32;;;24.10;44.20;28.50;94681.00;;;;10352505;28;75050;-66
2021/10/07 15:08:27;;;;;;;0.73;0.40;;;24.10;44.10;28.50;94667.00;;;;10343995;28;75645;-64
2021/10/07 15:13:28;;;;;;;0.75;0.30;;;24.10;44.30;28.60;94690.00;;;;10361812;28;76272;-69
2021/10/07 15:18:30;;;;;;;1.05;0.30;;;24.10;44.40;28.60;94676.00;;;;10380316;22;74331;-63
2021/10/07 15:23:30;;;;;;;0.45;0.30;;;24.10;44.10;28.50;94670.00;;;;10394307;28;45556;-62
2021/10/07 15:28:31;;;;;;;0.57;0.20;;;24.10;44.40;28.60;94661.00;;;;10364757;28;45329;-64
2021/10/07 15:33:35;;;;;;;3.35;0.50;;;24.10;44.30;28.60;94660.00;;;;10347157;28;47359;-64
2021/10/07 15:38:36;;;;;;;1.55;0.20;;;24.10;44.30;28.50;94653.00;;;;10390887;28;45371;-63
2021/10/07 15:43:36;;;;;;;0.30;0.30;;;24.10;44.30;28.50;94664.00;;;;10393767;28;46041;-64
2021/10/07 15:48:39;;;;;;;0.35;0.25;;;24.20;44.30;28.60;94658.00;;;;10391749;28;62318;-63
2021/10/07 15:53:40;;;;;;;0.20;0.15;;;24.10;44.30;28.60;94659.00;;;;10392235;28;47521;-63
2021/10/07 15:58:41;;;;;;;1.02;0.30;;;24.10;44.10;28.50;94660.00;;;;10391192;28;71409;-63
2021/10/07 16:03:42;;;;;;;2.67;0.30;;;24.10;44.00;28.50;94659.00;;;;10391148;28;47414;-65
2021/10/07 16:08:43;;;;;;;0.75;0.30;;;24.10;44.00;28.50;94663.00;;;;10391360;28;45373;-68
2021/10/07 16:13:43;;;;;;;0.30;0.20;;;24.10;44.30;28.50;94668.00;;;;10390259;28;75720;-62
2021/10/07 16:18:47;;;;;;;0.82;0.20;;;24.10;44.30;28.50;94671.00;;;;10405879;28;75214;-65
2021/10/07 16:23:48;;;;;;;1.25;0.20;;;24.10;44.10;28.50;94668.00;;;;10391411;28;45313;-63
2021/10/07 16:28:49;;;;;;;1.27;0.20;;;24.10;43.50;28.50;94672.00;;;;10391962;28;45381;-62
2021/10/07 16:33:50;;;;;;;0.70;0.38;;;24.10;43.70;28.50;94672.00;;;;10391168;28;73641;-62
2021/10/07 16:38:51;;;;;;;2.70;0.35;;;24.10;44.30;28.50;94665.00;;;;10391086;28;46696;-63
2021/10/07 16:43:52;;;;;;;0.55;0.20;;;24.10;44.00;28.50;94679.00;;;;10375404;28;45325;-64
2021/10/07 16:48:53;;;;;;;0.28;0.15;;;24.10;44.10;28.60;94673.00;;;;10389521;28;45390;-65
2021/10/07 16:53:54;;;;;;;1.95;0.20;;;24.20;44.10;28.60;94668.00;;;;10391123;28;63059;-64
2021/10/07 16:58:54;;;;;;;1.02;0.20;;;24.20;44.10;28.70;94682.00;;;;10373026;28;47486;-63
2021/10/07 17:03:55;;;;;;;1.23;0.30;;;24.20;44.10;28.70;94682.00;;;;10372249;28;75277;-64
2021/10/07 17:08:57;;;;;;;0.80;0.25;;;24.30;44.20;28.70;94680.00;;;;10405421;28;75065;-63
2021/10/07 17:13:58;;;;;;;1.00;0.38;;;24.20;44.00;28.70;94689.00;;;;10378508;28;74183;-66
2021/10/07 17:18:58;;;;;;;0.45;0.30;;;24.30;44.00;28.70;94694.00;;;;10403140;28;59529;-62
2021/10/07 17:23:59;;;;;;;3.38;0.40;;;24.20;44.00;28.70;94696.00;;;;10403350;28;75314;-62
2021/10/07 17:29:00;;;;;;;0.60;0.30;;;24.20;44.00;28.70;94698.00;;;;10402627;28;75967;-62
2021/10/07 17:34:01;;;;;;;0.90;0.30;;;24.30;44.30;28.70;94705.00;;;;10405193;28;65093;-65
2021/10/07 17:39:02;;;;;;;1.08;0.40;;;24.30;44.00;28.70;94704.00;;;;10403397;28;74545;-63
2021/10/07 17:44:05;;;;;;;0.50;0.30;;;24.30;43.90;28.70;94712.00;;;;10403316;28;49385;-62
2021/10/07 17:49:06;;;;;;;0.95;0.40;;;24.30;43.90;28.70;94701.00;;;;10402812;28;48138;-62
2021/10/07 17:54:07;;;;;;;0.45;0.30;;;24.30;44.00;28.70;94702.00;;;;10403548;28;46423;-63
2021/10/07 17:59:08;;;;;;;0.77;0.30;;;24.30;43.80;28.70;94715.00;;;;10402177;28;53914;-63
2021/10/07 18:04:09;;;;;;;0.80;0.30;;;24.30;43.80;28.70;94706.00;;;;10386622;28;47471;-63
2021/10/07 18:09:09;;;;;;;2.63;0.30;;;24.30;43.80;28.70;94713.00;;;;10402911;28;45316;-63
2021/10/07 18:14:10;;;;;;;0.40;0.20;;;24.30;43.80;28.70;94712.00;;;;10403845;28;45395;-62
2021/10/07 18:19:11;;;;;;;0.45;0.20;;;24.30;43.70;28.80;94719.00;;;;10418610;28;73100;-61
2021/10/07 18:24:15;;;;;;;1.50;0.30;;;24.30;43.70;28.80;94719.00;;;;10401797;28;46120;-64
2021/10/07 18:29:16;;;;;;;0.82;0.28;;;24.30;43.70;28.80;94716.00;;;;10395675;28;45518;-65
2021/10/07 18:34:18;;;;;;;0.47;0.22;;;24.30;43.70;28.70;94714.00;;;;10379058;28;48192;-63
2021/10/07 18:39:19;;;;;;;0.52;0.20;;;24.30;43.70;28.80;94709.00;;;;10378702;28;47429;-63
2021/10/07 18:44:21;;;;;;;0.52;0.30;;;24.30;43.70;28.70;94703.00;;;;10394564;28;68629;-64
2021/10/07 18:49:23;;;;;;;1.25;0.25;;;24.30;43.50;28.70;94719.00;;;;10394711;28;47998;-65
2021/10/07 18:54:23;;;;;;;0.77;0.10;;;24.30;43.60;28.70;94715.00;;;;10394157;28;75615;-64
2021/10/07 18:59:25;;;;;;;0.43;0.40;;;24.30;43.60;28.70;94707.00;;;;10393004;28;75323;-64
2021/10/07 19:04:26;;;;;;;0.50;0.28;;;24.30;43.50;28.80;94705.00;;;;10394426;28;45485;-63
2021/10/07 19:09:26;;;;;;;0.40;0.30;;;24.30;43.50;28.70;94701.00;;;;10395415;28;45572;-63
2021/10/07 19:14:28;;;;;;;1.45;0.30;;;24.30;43.60;28.80;94702.00;;;;10375852;28;73668;-63
2021/10/07 19:19:29;;;;;;;0.70;0.15;;;24.30;43.50;28.70;94691.00;;;;10374282;28;47251;-61
2021/10/07 19:24:30;;;;;;;0.50;0.20;;;24.30;43.50;28.70;94688.00;;;;10393529;28;56841;-64
2021/10/07 19:29:31;;;;;;;0.50;0.30;;;24.30;43.90;28.70;94674.00;;;;10392764;28;46891;-64
2021/10/07 19:34:32;;;;;;;0.57;0.32;;;24.30;43.30;28.70;94671.00;;;;10393170;28;45423;-64
2021/10/07 19:39:32;;;;;;;2.42;0.38;;;24.30;43.50;28.70;94694.00;;;;10391563;28;61974;-62
2021/10/07 19:44:34;;;;;;;1.23;0.20;;;24.30;43.60;28.70;94692.00;;;;10395466;28;75084;-63
2021/10/07 19:49:35;;;;;;;0.88;0.40;;;24.30;43.60;28.70;94689.00;;;;10392092;28;47975;-63
2021/10/07 19:54:36;;;;;;;1.10;0.40;;;24.30;43.60;28.70;94694.00;;;;10392091;28;45935;-61
2021/10/07 19:59:37;;;;;;;1.13;0.40;;;24.30;43.70;28.70;94685.00;;;;10403724;28;75703;-62
2021/10/07 20:04:38;;;;;;;1.65;0.40;;;24.30;43.40;28.70;94670.00;;;;10390024;28;74742;-61
2021/10/07 20:09:38;;;;;;;1.50;0.40;;;24.30;43.40;28.70;94661.00;;;;10392016;28;45613;-61
2021/10/07 20:14:39;;;;;;;0.35;0.35;;;24.30;43.40;28.70;94677.00;;;;10391234;28;48473;-61
2021/10/07 20:19:40;;;;;;;1.02;0.30;;;24.30;43.50;28.70;94666.00;;;;10391288;28;45493;-61
2021/10/07 20:24:41;;;;;;;0.52;0.22;;;24.30;43.50;28.70;94666.00;;;;10391909;28;75914;-60
2021/10/07 20:29:42;;;;;;;2.15;0.30;;;24.30;43.50;28.70;94668.00;;;;10391872;28;74481;-61
2021/10/07 20:34:56;;;;;;;0.60;0.30;;;24.30;43.60;28.70;94667.00;;;;10385646;28;73403;-62
2021/10/07 20:39:57;;;;;;;0.98;0.20;;;24.20;44.30;28.60;94674.00;;;;10365933;28;47142;-61
2021/10/07 20:45:00;;;;;;;2.20;0.40;;;24.20;43.60;28.60;94666.00;;;;10347776;28;45936;-62
2021/10/07 20:50:01;;;;;;;0.75;0.30;;;24.20;43.70;28.50;94664.00;;;;10349903;28;45605;-61
2021/10/07 20:55:04;;;;;;;1.65;0.20;;;24.10;43.70;28.50;94679.00;;;;10351517;28;45401;-61
2021/10/07 21:00:10;;;;;;;0.38;0.20;;;24.10;43.70;28.50;94669.00;;;;10351256;28;45390;-61
2021/10/07 21:05:11;;;;;;;0.50;0.30;;;24.10;43.70;28.50;94669.00;;;;10351215;28;47136;-61
2021/10/07 21:10:13;;;;;;;0.60;0.20;;;24.00;43.80;28.40;94669.00;;;;10349667;28;46115;-60
2021/10/07 21:15:13;;;;;;;0.20;0.20;;;24.00;43.80;28.40;94683.00;;;;10349318;28;47105;-61
2021/10/07 21:20:18;;;;;;;0.57;0.20;;;24.00;43.90;28.40;94680.00;;;;10348467;28;75602;-61
2021/10/07 21:25:18;;;;;;;0.40;0.20;;;24.00;44.00;28.30;94673.00;;;;10349231;28;45385;-60
2021/10/07 21:30:19;;;;;;;0.35;0.20;;;23.90;43.90;28.30;94658.00;;;;10364152;28;74547;-61
2021/10/07 21:35:20;;;;;;;0.85;0.30;;;23.90;44.00;28.30;94664.00;;;;10348113;28;75230;-61
2021/10/07 21:40:20;;;;;;;0.65;0.20;;;23.90;44.00;28.30;94656.00;;;;10349915;28;45661;-61
2021/10/07 21:45:21;;;;;;;0.20;0.10;;;23.90;44.00;28.30;94669.00;;;;10364113;28;74649;-61
2021/10/07 21:50:24;;;;;;;0.32;0.20;;;23.90;44.00;28.30;94664.00;;;;10348180;28;75537;-61
2021/10/07 21:55:25;;;;;;;0.20;0.20;;;23.90;44.10;28.20;94663.00;;;;10347859;28;45363;-62
2021/10/07 22:00:28;;;;;;;0.60;0.30;;;23.80;44.10;28.20;94661.00;;;;10351041;28;53927;-62
2021/10/07 22:05:28;;;;;;;0.50;0.20;;;23.80;44.10;28.20;94651.00;;;;10355494;28;45391;-60